This is the latest recevied weather packets stored in our database for station/object KG4IFE-13. If no packets are shown the sender has not sent any weather packets the latest 10 day(s).
| Time | Temp. | Humidity | Pressure | Rain* | Wind** | Luminosity | Snow |
|---|---|---|---|---|---|---|---|
| 1777406018 | 22.78° C | 67% | 1016.2 hPa | - | - | - | - |
| 1777405115 | 22.22° C | 68% | 1016.3 hPa | - | - | - | - |
| 1777402406 | 21.67° C | 67% | 1017 hPa | - | - | - | - |
| 1777401524 | 21.11° C | 69% | 1017.2 hPa | - | - | - | - |
| 1777396386 | 17.22° C | 74% | 1018.3 hPa | - | - | - | - |
| 1777393978 | 16.67° C | 75% | 1018.5 hPa | - | - | - | - |
| 1777391893 | 16.67° C | 74% | 1018.9 hPa | - | - | - | - |
| 1777390065 | 15.56° C | 76% | 1018.5 hPa | - | - | - | - |
| 1777389464 | 15° C | 79% | 1018.6 hPa | - | - | - | - |
| 1777389184 | 15° C | 80% | 1018.4 hPa | - | - | - | - |
| 1777388862 | 15° C | 80% | 1018.4 hPa | - | - | - | - |
| 1777386453 | 12.78° C | 84% | 1019 hPa | - | - | - | - |
| 1777385852 | 12.78° C | 85% | 1018.8 hPa | - | - | - | - |
| 1777385249 | 12.22° C | 86% | 1019.1 hPa | - | - | - | - |
| 1777381036 | 10.56° C | 87% | 1020.5 hPa | - | - | - | - |
| 1777379229 | 10° C | 86% | 1020.8 hPa | - | - | - | - |
| 1777377123 | 10° C | 86% | 1021.8 hPa | - | - | - | - |
| 1777376520 | 10° C | 86% | 1022.3 hPa | - | - | - | - |
| 1777374413 | 9.44° C | 85% | 1022.9 hPa | - | - | - | - |
| 1777374112 | 9.44° C | 85% | 1022.9 hPa | - | - | - | - |
| 1777373510 | 10° C | 85% | 1023 hPa | - | - | - | - |
| 1777371704 | 10° C | 83% | 1022.2 hPa | - | - | - | - |
| 1777369919 | 10.56° C | 81% | 1022.7 hPa | - | - | - | - |
| 1777368695 | 10.56° C | 80% | 1021.5 hPa | - | - | - | - |
| 1777367792 | 11.11° C | 79% | 1020.4 hPa | - | - | - | - |
* Rain since midnight (hover to see other rain measurements)
** Current wind speed in m/s (hover to see current wind gust speed)